Time;durP1;ratioP1;P1;durP2;ratioP2;P2;SDS_P1;SDS_P2;PMS_P1;PMS_P2;Temp;Humidity;BMP_temperature;BMP_pressure;BME280_temperature;BME280_humidity;BME280_pressure;Samples;Min_cycle;Max_cycle;Signal;HPM_P1;HPM_P2
2023/05/08 00:00:17;;;;;;;7.95;6.28;;;;;;;;;;4959476;28;20053;-79
2023/05/08 00:02:42;;;;;;;7.75;5.88;;;;;;;;;;4968139;28;20053;-79
2023/05/08 00:05:08;;;;;;;7.80;5.95;;;;;;;;;;4961779;28;20451;-79
2023/05/08 00:07:35;;;;;;;6.97;5.18;;;;;;;;;;4959639;28;20084;-78
2023/05/08 00:10:00;;;;;;;10.63;6.50;;;;;;;;;;4954337;28;20066;-79
2023/05/08 00:12:26;;;;;;;7.93;6.07;;;;;;;;;;4953712;28;20043;-79
2023/05/08 00:14:51;;;;;;;8.75;6.30;;;;;;;;;;4960537;28;20085;-78
2023/05/08 00:17:17;;;;;;;6.38;5.65;;;;;;;;;;4949970;28;20119;-80
2023/05/08 00:19:42;;;;;;;8.80;6.72;;;;;;;;;;4961744;28;20050;-78
2023/05/08 00:22:07;;;;;;;9.30;6.07;;;;;;;;;;4958526;28;20154;-79
2023/05/08 00:24:33;;;;;;;7.38;5.93;;;;;;;;;;4955928;28;20046;-79
2023/05/08 00:26:58;;;;;;;7.40;5.53;;;;;;;;;;4960687;28;20567;-79
2023/05/08 00:29:23;;;;;;;6.88;5.80;;;;;;;;;;4958681;28;20050;-80
2023/05/08 00:31:49;;;;;;;6.82;5.47;;;;;;;;;;4962662;28;20061;-80
2023/05/08 00:34:14;;;;;;;6.43;5.50;;;;;;;;;;4959980;28;20063;-80
2023/05/08 00:36:39;;;;;;;4.63;4.13;;;;;;;;;;4966850;28;20140;-80
2023/05/08 00:39:05;;;;;;;7.28;5.35;;;;;;;;;;4946229;28;20125;-79
2023/05/08 00:41:30;;;;;;;7.80;5.20;;;;;;;;;;4964493;28;20039;-79
2023/05/08 00:43:55;;;;;;;8.93;6.05;;;;;;;;;;4963935;28;20117;-79
2023/05/08 00:46:21;;;;;;;9.63;6.05;;;;;;;;;;4956700;28;20050;-80
2023/05/08 00:48:47;;;;;;;9.30;5.93;;;;;;;;;;4963692;28;20647;-80
2023/05/08 00:51:13;;;;;;;8.93;5.97;;;;;;;;;;4964543;28;20035;-79
2023/05/08 00:53:41;;;;;;;6.47;4.78;;;;;;;;;;4942703;28;20106;-80
2023/05/08 00:56:10;;;;;;;8.00;5.18;;;;;;;;;;4963784;28;20039;-80
2023/05/08 00:58:37;;;;;;;9.23;6.45;;;;;;;;;;4963505;28;20120;-80
2023/05/08 01:01:03;;;;;;;6.13;4.80;;;;;;;;;;4962531;28;20037;-81
2023/05/08 01:03:31;;;;;;;7.55;5.65;;;;;;;;;;4956139;28;20127;-81
2023/05/08 01:05:56;;;;;;;7.55;5.80;;;;;;;;;;4943491;28;20047;-80
2023/05/08 01:08:22;;;;;;;4.78;3.53;;;;;;;;;;4950625;28;20746;-81
2023/05/08 01:11:06;;;;;;;6.75;5.45;;;;;;;;;;4963588;28;20112;-80
2023/05/08 01:14:15;;;;;;;7.95;6.07;;;;;;;;;;4953479;28;20484;-80
2023/05/08 01:16:44;;;;;;;6.80;5.85;;;;;;;;;;4934283;28;20599;-80
2023/05/08 01:19:09;;;;;;;7.30;5.32;;;;;;;;;;4956536;28;20098;-80
2023/05/08 01:21:52;;;;;;;9.32;6.20;;;;;;;;;;4958607;28;20463;-79
2023/05/08 01:24:31;;;;;;;3.38;3.00;;;;;;;;;;4964952;28;20260;-79
2023/05/08 01:27:17;;;;;;;9.32;6.38;;;;;;;;;;4934623;28;20050;-80
2023/05/08 01:29:43;;;;;;;6.78;5.07;;;;;;;;;;4944536;28;20039;-80
2023/05/08 01:32:22;;;;;;;8.20;5.90;;;;;;;;;;4944682;28;20550;-80
2023/05/08 01:35:07;;;;;;;7.80;5.88;;;;;;;;;;4953297;28;20085;-81
2023/05/08 01:37:48;;;;;;;6.03;5.38;;;;;;;;;;4932569;28;20125;-80
2023/05/08 01:40:24;;;;;;;8.45;6.43;;;;;;;;;;4959315;28;20097;-79
2023/05/08 01:43:06;;;;;;;7.45;5.63;;;;;;;;;;4963112;28;20046;-79
2023/05/08 01:45:38;;;;;;;7.32;5.88;;;;;;;;;;4935160;28;20046;-79
2023/05/08 01:48:05;;;;;;;;;;;;;;;;;;4938687;28;20122;-79
2023/05/08 01:50:35;;;;;;;7.13;5.55;;;;;;;;;;4963553;28;19953;-79
2023/05/08 01:53:18;;;;;;;9.52;6.32;;;;;;;;;;4956768;28;20038;-79
2023/05/08 01:55:47;;;;;;;7.72;5.80;;;;;;;;;;4958734;28;20045;-78
2023/05/08 01:58:13;;;;;;;4.10;3.70;;;;;;;;;;4934533;28;20129;-79
2023/05/08 02:00:40;;;;;;;8.35;5.97;;;;;;;;;;4946408;28;20050;-79
2023/05/08 02:03:08;;;;;;;4.00;3.33;;;;;;;;;;4959164;28;20166;-79
2023/05/08 02:05:36;;;;;;;7.78;6.15;;;;;;;;;;4952929;28;20066;-78
2023/05/08 02:08:03;;;;;;;6.10;5.25;;;;;;;;;;4961339;28;20039;-78
2023/05/08 02:10:29;;;;;;;7.63;5.88;;;;;;;;;;4948906;28;20069;-78
2023/05/08 02:12:55;;;;;;;8.18;5.57;;;;;;;;;;4952168;28;20042;-78
2023/05/08 02:15:23;;;;;;;6.03;4.90;;;;;;;;;;4953168;28;20091;-78
2023/05/08 02:17:50;;;;;;;7.80;5.90;;;;;;;;;;4954967;28;20157;-78
2023/05/08 02:20:18;;;;;;;9.00;7.05;;;;;;;;;;4963001;28;20431;-79
2023/05/08 02:22:47;;;;;;;8.57;6.57;;;;;;;;;;4943461;28;20121;-78
2023/05/08 02:25:15;;;;;;;5.50;4.15;;;;;;;;;;4914764;28;20055;-79
2023/05/08 02:27:45;;;;;;;7.68;6.53;;;;;;;;;;4947160;28;20412;-78
2023/05/08 02:30:15;;;;;;;8.07;6.23;;;;;;;;;;4952406;28;20043;-79
2023/05/08 02:32:45;;;;;;;3.92;3.53;;;;;;;;;;4953624;28;20287;-78
2023/05/08 02:35:13;;;;;;;5.25;4.03;;;;;;;;;;4957035;28;20935;-79
2023/05/08 02:37:43;;;;;;;5.93;4.97;;;;;;;;;;4924755;28;20051;-78
2023/05/08 02:40:11;;;;;;;4.60;3.67;;;;;;;;;;4958660;28;20047;-79
2023/05/08 02:42:37;;;;;;;6.90;5.22;;;;;;;;;;4956131;28;20047;-79
2023/05/08 02:45:03;;;;;;;5.30;4.07;;;;;;;;;;4942483;28;20050;-79
2023/05/08 02:47:38;;;;;;;4.47;4.00;;;;;;;;;;4954447;28;20041;-79
2023/05/08 02:50:12;;;;;;;8.60;6.68;;;;;;;;;;4946506;28;20079;-78
2023/05/08 02:52:46;;;;;;;8.80;6.43;;;;;;;;;;4931843;28;20048;-79
2023/05/08 02:55:33;;;;;;;9.48;6.75;;;;;;;;;;4952681;28;20065;-78
2023/05/08 02:58:39;;;;;;;8.93;6.30;;;;;;;;;;4945197;28;20042;-79
2023/05/08 03:01:12;;;;;;;9.20;6.90;;;;;;;;;;4880288;29;20059;-79
2023/05/08 03:03:43;;;;;;;8.95;6.93;;;;;;;;;;4954287;28;20031;-79
2023/05/08 03:06:23;;;;;;;;;;;;;;;;;;4952500;28;20035;-78
2023/05/08 03:08:50;;;;;;;8.57;6.63;;;;;;;;;;4959190;28;20325;-78
2023/05/08 03:11:21;;;;;;;9.07;5.70;;;;;;;;;;4948982;28;20055;-78
2023/05/08 03:13:48;;;;;;;7.10;5.65;;;;;;;;;;4926904;28;20110;-79
2023/05/08 03:16:21;;;;;;;10.82;7.10;;;;;;;;;;4950467;28;20058;-78
2023/05/08 03:18:55;;;;;;;9.48;6.45;;;;;;;;;;4951792;28;20037;-78
2023/05/08 03:21:25;;;;;;;9.77;7.10;;;;;;;;;;4955290;28;20046;-78
2023/05/08 03:23:51;;;;;;;4.25;3.67;;;;;;;;;;4934070;28;20039;-79
2023/05/08 03:26:18;;;;;;;8.98;6.82;;;;;;;;;;4952362;28;20516;-78
2023/05/08 03:28:49;;;;;;;9.82;7.07;;;;;;;;;;4951743;28;20496;-78
2023/05/08 03:31:20;;;;;;;7.93;5.47;;;;;;;;;;4955270;28;20043;-77
2023/05/08 03:33:46;;;;;;;8.73;6.80;;;;;;;;;;4955301;28;20042;-78
2023/05/08 03:36:13;;;;;;;11.40;7.40;;;;;;;;;;4950306;28;20066;-78
2023/05/08 03:38:38;;;;;;;10.60;7.18;;;;;;;;;;4944044;28;20739;-78
2023/05/08 03:41:04;;;;;;;12.10;7.47;;;;;;;;;;4955111;28;20031;-78
2023/05/08 03:43:30;;;;;;;11.52;7.07;;;;;;;;;;4960304;28;20042;-78
2023/05/08 03:45:57;;;;;;;14.05;7.80;;;;;;;;;;4958371;28;20092;-78
2023/05/08 03:48:24;;;;;;;9.88;7.20;;;;;;;;;;4953319;28;20061;-78
2023/05/08 03:50:50;;;;;;;7.03;5.05;;;;;;;;;;4938046;28;20045;-79
2023/05/08 03:53:16;;;;;;;10.63;8.10;;;;;;;;;;4952550;28;20115;-78
2023/05/08 03:55:41;;;;;;;11.02;8.05;;;;;;;;;;4958031;28;20147;-78
2023/05/08 03:58:30;;;;;;;11.45;7.63;;;;;;;;;;4951353;28;20035;-78
2023/05/08 04:01:01;;;;;;;10.30;7.40;;;;;;;;;;4952361;28;20038;-79
2023/05/08 04:03:50;;;;;;;9.55;6.65;;;;;;;;;;4939058;28;20111;-78
2023/05/08 04:06:30;;;;;;;10.77;7.47;;;;;;;;;;4965750;28;20491;-78
2023/05/08 04:09:07;;;;;;;10.60;7.72;;;;;;;;;;4953877;28;20042;-79
2023/05/08 04:11:51;;;;;;;12.15;7.97;;;;;;;;;;4936803;28;20053;-79
2023/05/08 04:14:19;;;;;;;11.30;8.02;;;;;;;;;;4963760;28;20093;-79
2023/05/08 04:16:51;;;;;;;11.77;7.85;;;;;;;;;;4957055;28;20476;-80
2023/05/08 04:19:32;;;;;;;8.93;7.05;;;;;;;;;;4947334;28;20036;-80
2023/05/08 04:22:00;;;;;;;11.25;8.10;;;;;;;;;;4947458;28;20070;-79
2023/05/08 04:24:27;;;;;;;11.25;7.45;;;;;;;;;;4958563;28;20054;-78
2023/05/08 04:26:53;;;;;;;11.98;7.85;;;;;;;;;;4964863;28;20034;-79
2023/05/08 04:29:19;;;;;;;11.52;7.97;;;;;;;;;;4950557;28;20050;-78
2023/05/08 04:31:45;;;;;;;11.43;8.20;;;;;;;;;;4953952;28;20073;-77
2023/05/08 04:34:11;;;;;;;13.05;8.48;;;;;;;;;;4951516;28;20035;-77
2023/05/08 04:36:37;;;;;;;11.73;8.43;;;;;;;;;;4939909;28;20049;-78
2023/05/08 04:39:02;;;;;;;11.13;8.00;;;;;;;;;;4932990;28;20467;-78
2023/05/08 04:41:28;;;;;;;10.38;8.00;;;;;;;;;;4964316;28;20034;-78
2023/05/08 04:43:54;;;;;;;13.68;8.30;;;;;;;;;;4953976;28;20081;-76
2023/05/08 04:46:19;;;;;;;11.00;7.85;;;;;;;;;;4958545;28;20047;-78
2023/05/08 04:48:44;;;;;;;10.35;7.85;;;;;;;;;;4948386;28;20050;-78
2023/05/08 04:51:10;;;;;;;12.07;8.35;;;;;;;;;;4938630;28;20071;-78
2023/05/08 04:53:36;;;;;;;11.50;7.85;;;;;;;;;;4936552;28;20050;-78
2023/05/08 04:56:01;;;;;;;14.05;8.98;;;;;;;;;;4950347;28;20039;-79
2023/05/08 04:58:27;;;;;;;13.25;9.20;;;;;;;;;;4964230;28;20429;-79
2023/05/08 05:00:53;;;;;;;10.85;8.50;;;;;;;;;;4964409;28;20053;-79
2023/05/08 05:03:18;;;;;;;10.93;7.93;;;;;;;;;;4952630;28;20042;-78
2023/05/08 05:05:44;;;;;;;13.45;8.45;;;;;;;;;;4948843;28;20031;-80
2023/05/08 05:08:09;;;;;;;11.43;8.27;;;;;;;;;;4947558;28;20530;-78
2023/05/08 05:10:34;;;;;;;14.02;9.30;;;;;;;;;;4957469;28;20035;-80
2023/05/08 05:13:00;;;;;;;8.82;5.90;;;;;;;;;;4952946;28;20039;-80
2023/05/08 05:15:25;;;;;;;13.05;8.88;;;;;;;;;;4946075;28;20059;-79
2023/05/08 05:17:51;;;;;;;13.45;8.85;;;;;;;;;;4941260;28;20046;-80
2023/05/08 05:20:16;;;;;;;15.10;9.80;;;;;;;;;;4961657;28;20090;-79
2023/05/08 05:22:41;;;;;;;14.70;9.00;;;;;;;;;;4953557;28;20055;-80
2023/05/08 05:25:07;;;;;;;13.90;9.15;;;;;;;;;;4939904;28;20050;-79
2023/05/08 05:27:35;;;;;;;12.05;8.50;;;;;;;;;;4947246;28;20129;-79
2023/05/08 05:30:01;;;;;;;14.95;9.18;;;;;;;;;;4960876;28;20042;-79
2023/05/08 05:32:27;;;;;;;12.57;8.93;;;;;;;;;;4957840;28;20050;-79
2023/05/08 05:34:53;;;;;;;13.75;8.93;;;;;;;;;;4953020;28;20039;-79
2023/05/08 05:37:18;;;;;;;14.93;9.10;;;;;;;;;;4961221;28;20427;-79
2023/05/08 05:39:44;;;;;;;13.50;9.52;;;;;;;;;;4960299;28;20045;-79
2023/05/08 05:42:09;;;;;;;12.63;8.68;;;;;;;;;;4962833;28;20053;-79
2023/05/08 05:44:35;;;;;;;11.57;8.48;;;;;;;;;;4963045;28;20097;-79
2023/05/08 05:47:03;;;;;;;12.05;8.80;;;;;;;;;;4949779;28;20106;-79
2023/05/08 05:49:29;;;;;;;11.43;7.50;;;;;;;;;;4948331;28;20073;-79
2023/05/08 05:51:54;;;;;;;14.60;9.50;;;;;;;;;;4958567;28;20034;-79
2023/05/08 05:54:20;;;;;;;9.23;6.68;;;;;;;;;;4944307;28;20038;-78
2023/05/08 05:56:45;;;;;;;15.65;9.23;;;;;;;;;;4965272;28;20178;-79
2023/05/08 05:59:10;;;;;;;13.63;8.88;;;;;;;;;;4962717;28;20047;-79
2023/05/08 06:01:36;;;;;;;14.48;9.20;;;;;;;;;;4951459;28;20050;-79
2023/05/08 06:04:01;;;;;;;14.13;8.85;;;;;;;;;;4950833;28;20051;-80
2023/05/08 06:06:27;;;;;;;14.85;9.77;;;;;;;;;;4962216;28;20081;-81
2023/05/08 06:08:53;;;;;;;12.68;9.15;;;;;;;;;;4964181;28;20040;-78
2023/05/08 06:11:21;;;;;;;12.75;8.85;;;;;;;;;;4962534;28;20035;-79
2023/05/08 06:13:46;;;;;;;12.57;8.60;;;;;;;;;;4953025;28;20107;-79
2023/05/08 06:16:12;;;;;;;10.75;8.57;;;;;;;;;;4957615;28;20067;-79
2023/05/08 06:18:37;;;;;;;11.35;9.00;;;;;;;;;;4955149;28;20122;-79
2023/05/08 06:21:03;;;;;;;12.48;9.32;;;;;;;;;;4962773;28;20038;-79
2023/05/08 06:23:28;;;;;;;11.82;8.90;;;;;;;;;;4942544;28;20712;-79
2023/05/08 06:25:54;;;;;;;11.57;8.23;;;;;;;;;;4959325;28;20400;-79
2023/05/08 06:28:21;;;;;;;13.15;9.35;;;;;;;;;;4949476;28;20392;-79
2023/05/08 06:30:46;;;;;;;14.02;8.90;;;;;;;;;;4945346;28;20053;-79
2023/05/08 06:33:12;;;;;;;8.52;5.68;;;;;;;;;;4923010;28;20050;-79
2023/05/08 06:35:37;;;;;;;12.43;9.32;;;;;;;;;;4923892;28;20118;-79
2023/05/08 06:38:03;;;;;;;12.70;8.98;;;;;;;;;;4923629;28;20126;-79
2023/05/08 06:40:28;;;;;;;12.23;9.00;;;;;;;;;;4930041;28;20039;-79
2023/05/08 06:42:53;;;;;;;14.05;9.27;;;;;;;;;;4938159;28;20046;-79
2023/05/08 06:45:19;;;;;;;12.20;8.93;;;;;;;;;;4918065;28;20047;-79
2023/05/08 06:47:44;;;;;;;13.00;9.23;;;;;;;;;;4949212;28;20050;-79
2023/05/08 06:50:10;;;;;;;12.27;8.80;;;;;;;;;;4953176;28;20046;-79
2023/05/08 06:52:35;;;;;;;11.80;9.02;;;;;;;;;;4925939;28;20039;-79
2023/05/08 06:55:01;;;;;;;12.43;9.30;;;;;;;;;;4934804;28;20105;-79
2023/05/08 06:57:28;;;;;;;14.20;9.05;;;;;;;;;;4923834;28;20039;-79
2023/05/08 06:59:53;;;;;;;13.70;9.48;;;;;;;;;;4945147;28;20460;-79
2023/05/08 07:02:18;;;;;;;12.82;8.85;;;;;;;;;;4927369;28;20061;-79
2023/05/08 07:04:44;;;;;;;12.77;10.23;;;;;;;;;;4953838;28;20512;-79
2023/05/08 07:07:10;;;;;;;11.98;9.40;;;;;;;;;;4956054;28;20093;-79
2023/05/08 07:09:35;;;;;;;9.52;7.53;;;;;;;;;;4960440;28;20046;-79
2023/05/08 07:12:01;;;;;;;11.13;9.35;;;;;;;;;;4941372;28;20117;-79
2023/05/08 07:14:27;;;;;;;12.45;9.55;;;;;;;;;;4948074;28;20038;-79
2023/05/08 07:16:52;;;;;;;9.10;7.28;;;;;;;;;;4954070;28;20045;-79
2023/05/08 07:19:18;;;;;;;13.98;9.32;;;;;;;;;;4955306;28;20129;-79
2023/05/08 07:21:45;;;;;;;12.35;9.38;;;;;;;;;;4926573;28;20066;-79
2023/05/08 07:24:10;;;;;;;13.50;9.02;;;;;;;;;;4937576;28;20042;-80
2023/05/08 07:26:36;;;;;;;10.85;8.70;;;;;;;;;;4956101;28;20078;-79
2023/05/08 07:29:02;;;;;;;11.88;8.55;;;;;;;;;;4922220;28;20035;-79
2023/05/08 07:31:27;;;;;;;13.63;9.77;;;;;;;;;;4936326;28;20042;-79
2023/05/08 07:33:52;;;;;;;11.38;9.05;;;;;;;;;;4937368;28;20432;-79
2023/05/08 07:36:18;;;;;;;10.23;9.00;;;;;;;;;;4936115;28;20081;-79
2023/05/08 07:38:43;;;;;;;12.88;8.93;;;;;;;;;;4942826;28;20068;-79
2023/05/08 07:41:10;;;;;;;10.55;8.20;;;;;;;;;;4944861;28;20124;-79
2023/05/08 07:43:36;;;;;;;12.45;9.45;;;;;;;;;;4921859;28;20039;-79
2023/05/08 07:46:02;;;;;;;10.45;8.70;;;;;;;;;;4919110;28;20047;-79
2023/05/08 07:48:27;;;;;;;11.93;8.55;;;;;;;;;;4927681;28;20043;-80
2023/05/08 07:50:52;;;;;;;14.07;9.30;;;;;;;;;;4916322;28;20045;-80
2023/05/08 07:53:18;;;;;;;10.52;8.63;;;;;;;;;;4914788;28;20055;-79
2023/05/08 07:55:43;;;;;;;10.13;8.35;;;;;;;;;;4945738;28;20039;-79
2023/05/08 07:58:09;;;;;;;11.95;9.25;;;;;;;;;;4903652;28;20085;-79
2023/05/08 08:00:34;;;;;;;12.73;9.23;;;;;;;;;;4934221;28;20051;-79
2023/05/08 08:02:59;;;;;;;11.68;8.95;;;;;;;;;;4929639;28;20038;-78
2023/05/08 08:05:25;;;;;;;11.75;8.93;;;;;;;;;;4939978;28;20046;-79
2023/05/08 08:07:50;;;;;;;9.77;7.75;;;;;;;;;;4925991;28;20159;-79
2023/05/08 08:10:16;;;;;;;10.27;7.90;;;;;;;;;;4933127;28;20038;-78
2023/05/08 08:12:41;;;;;;;10.38;8.38;;;;;;;;;;4927426;28;20035;-79
2023/05/08 08:15:07;;;;;;;11.07;8.48;;;;;;;;;;4951571;28;20035;-78
2023/05/08 08:17:33;;;;;;;11.73;7.45;;;;;;;;;;4939997;28;20046;-79
2023/05/08 08:19:58;;;;;;;9.68;8.40;;;;;;;;;;4928667;28;20051;-79
2023/05/08 08:22:24;;;;;;;10.77;8.25;;;;;;;;;;4932809;28;20038;-79
2023/05/08 08:24:50;;;;;;;10.27;8.05;;;;;;;;;;4940704;28;20038;-79
2023/05/08 08:27:15;;;;;;;10.23;8.15;;;;;;;;;;4934608;28;20039;-79
2023/05/08 08:29:41;;;;;;;11.52;8.90;;;;;;;;;;4930392;28;20046;-79
2023/05/08 08:32:06;;;;;;;11.07;8.55;;;;;;;;;;4936153;28;20042;-79
2023/05/08 08:34:33;;;;;;;9.35;8.02;;;;;;;;;;4940537;28;20190;-79
2023/05/08 08:36:58;;;;;;;10.70;8.48;;;;;;;;;;4945829;28;20043;-79
2023/05/08 08:39:24;;;;;;;10.98;8.60;;;;;;;;;;4933254;28;20041;-79
2023/05/08 08:41:49;;;;;;;11.88;9.32;;;;;;;;;;4931522;28;20416;-79
2023/05/08 08:44:15;;;;;;;9.23;8.23;;;;;;;;;;4948236;28;20063;-79
2023/05/08 08:47:02;;;;;;;8.05;7.18;;;;;;;;;;4951304;28;20051;-79
2023/05/08 08:49:31;;;;;;;9.60;7.95;;;;;;;;;;4916705;28;20536;-78
2023/05/08 08:52:21;;;;;;;10.02;8.40;;;;;;;;;;4936047;28;20042;-79
2023/05/08 08:54:49;;;;;;;9.27;8.13;;;;;;;;;;4929429;28;20790;-79
2023/05/08 08:57:15;;;;;;;9.32;7.70;;;;;;;;;;4939426;28;20050;-79
2023/05/08 08:59:42;;;;;;;10.02;8.18;;;;;;;;;;4960137;28;20054;-79
2023/05/08 09:02:13;;;;;;;9.07;7.82;;;;;;;;;;4909380;28;20598;-79
2023/05/08 09:04:40;;;;;;;8.98;7.72;;;;;;;;;;4925133;28;20050;-79
2023/05/08 09:07:07;;;;;;;8.82;7.72;;;;;;;;;;4926110;28;20035;-79
2023/05/08 09:09:36;;;;;;;8.38;7.20;;;;;;;;;;4924824;28;20042;-79
2023/05/08 09:12:02;;;;;;;8.60;7.47;;;;;;;;;;4930423;28;20118;-80
2023/05/08 09:14:28;;;;;;;9.35;8.35;;;;;;;;;;4941867;28;20508;-80
2023/05/08 09:16:56;;;;;;;8.95;7.45;;;;;;;;;;4936132;28;20045;-79
2023/05/08 09:19:24;;;;;;;11.18;8.32;;;;;;;;;;4927027;28;20125;-79
2023/05/08 09:21:50;;;;;;;10.23;8.73;;;;;;;;;;4927519;28;20056;-79
2023/05/08 09:24:15;;;;;;;9.38;8.25;;;;;;;;;;4955432;28;20030;-78
2023/05/08 09:26:41;;;;;;;10.32;8.43;;;;;;;;;;4931719;28;20407;-78
2023/05/08 09:29:16;;;;;;;9.20;8.30;;;;;;;;;;4929993;28;20149;-78
2023/05/08 09:31:46;;;;;;;9.43;8.13;;;;;;;;;;4934424;28;20047;-79
2023/05/08 09:34:26;;;;;;;9.18;8.13;;;;;;;;;;4935683;28;20033;-79
2023/05/08 09:36:53;;;;;;;8.93;7.93;;;;;;;;;;4934950;28;20181;-79
2023/05/08 09:39:23;;;;;;;9.35;8.40;;;;;;;;;;4926339;28;20042;-79
2023/05/08 09:42:04;;;;;;;8.32;6.95;;;;;;;;;;4927982;28;20867;-78
2023/05/08 09:44:59;;;;;;;8.25;7.28;;;;;;;;;;4937527;28;20054;-79
2023/05/08 09:47:24;;;;;;;10.55;8.80;;;;;;;;;;4928039;28;20043;-79
2023/05/08 09:50:00;;;;;;;9.95;8.70;;;;;;;;;;4912502;28;20043;-79
2023/05/08 09:52:26;;;;;;;10.15;8.70;;;;;;;;;;4938228;28;20057;-78
2023/05/08 09:55:06;;;;;;;9.73;8.50;;;;;;;;;;4944762;28;20043;-79
2023/05/08 09:57:38;;;;;;;9.38;8.48;;;;;;;;;;4941398;28;20035;-79
2023/05/08 10:00:08;;;;;;;10.13;8.82;;;;;;;;;;4925980;28;20451;-79
2023/05/08 10:02:35;;;;;;;9.90;8.82;;;;;;;;;;4917947;28;20047;-79
2023/05/08 10:05:01;;;;;;;10.10;8.45;;;;;;;;;;4952266;28;20046;-79
2023/05/08 10:07:28;;;;;;;10.52;9.43;;;;;;;;;;4956130;28;20090;-79
2023/05/08 10:09:58;;;;;;;10.85;9.18;;;;;;;;;;4955442;28;20042;-79
2023/05/08 10:12:25;;;;;;;10.30;9.27;;;;;;;;;;4918203;28;20035;-79
2023/05/08 10:14:50;;;;;;;10.30;9.30;;;;;;;;;;4940448;28;20043;-79
2023/05/08 10:17:25;;;;;;;9.60;8.68;;;;;;;;;;4937450;28;20113;-79
2023/05/08 10:19:57;;;;;;;9.93;8.18;;;;;;;;;;4927548;28;20038;-79
2023/05/08 10:22:24;;;;;;;10.00;8.80;;;;;;;;;;4925070;28;20114;-79
2023/05/08 10:24:54;;;;;;;9.23;8.32;;;;;;;;;;4937756;28;20914;-79
2023/05/08 10:27:26;;;;;;;10.50;9.50;;;;;;;;;;4937856;28;20043;-79
2023/05/08 10:29:54;;;;;;;10.40;9.27;;;;;;;;;;4948372;28;20113;-79
2023/05/08 10:32:21;;;;;;;9.20;8.32;;;;;;;;;;4944396;28;20081;-79
2023/05/08 10:34:58;;;;;;;9.68;8.25;;;;;;;;;;4954068;28;20732;-79
2023/05/08 10:37:24;;;;;;;10.52;8.98;;;;;;;;;;4931040;28;20049;-79
2023/05/08 10:39:53;;;;;;;11.35;9.00;;;;;;;;;;4929000;28;20042;-79
2023/05/08 10:42:18;;;;;;;10.35;9.23;;;;;;;;;;4943007;28;20050;-79
2023/05/08 10:44:45;;;;;;;11.93;8.70;;;;;;;;;;4929641;28;20046;-79
2023/05/08 10:47:16;;;;;;;8.60;7.80;;;;;;;;;;4940936;28;20823;-79
2023/05/08 10:49:59;;;;;;;9.63;8.63;;;;;;;;;;4925124;28;20058;-78
2023/05/08 10:52:42;;;;;;;7.45;6.78;;;;;;;;;;4879330;28;20155;-79
2023/05/08 10:55:36;;;;;;;9.68;8.68;;;;;;;;;;4952096;28;20035;-79
2023/05/08 10:58:27;;;;;;;9.60;8.48;;;;;;;;;;4955242;28;20051;-79
2023/05/08 11:00:55;;;;;;;10.15;9.15;;;;;;;;;;4913554;28;20047;-79
2023/05/08 11:03:25;;;;;;;9.77;8.63;;;;;;;;;;4933101;28;20566;-79
2023/05/08 11:05:52;;;;;;;9.82;8.70;;;;;;;;;;4939205;28;20043;-80
2023/05/08 11:08:26;;;;;;;9.93;8.82;;;;;;;;;;4937587;28;20037;-79
2023/05/08 11:11:05;;;;;;;10.70;9.35;;;;;;;;;;4952407;28;20050;-79
2023/05/08 11:13:35;;;;;;;10.50;9.40;;;;;;;;;;4890781;28;20122;-79
2023/05/08 11:16:01;;;;;;;;;;;;;;;;;;4933559;28;20105;-79
2023/05/08 11:18:28;;;;;;;9.20;8.02;;;;;;;;;;4956330;28;19953;-79
2023/05/08 11:21:14;;;;;;;9.75;8.75;;;;;;;;;;4950925;28;20050;-79
2023/05/08 11:23:40;;;;;;;9.20;8.32;;;;;;;;;;4915934;28;20047;-79
2023/05/08 11:26:12;;;;;;;10.10;9.10;;;;;;;;;;4936104;28;20046;-79
2023/05/08 11:28:40;;;;;;;9.68;8.68;;;;;;;;;;4961464;28;20250;-79
2023/05/08 11:31:07;;;;;;;9.55;8.63;;;;;;;;;;4942820;28;20053;-79
2023/05/08 11:33:39;;;;;;;9.68;8.73;;;;;;;;;;4950672;28;20047;-79
2023/05/08 11:36:19;;;;;;;9.57;8.68;;;;;;;;;;4937608;28;20042;-79
2023/05/08 11:39:06;;;;;;;10.02;9.02;;;;;;;;;;4936375;28;20609;-79
2023/05/08 11:41:32;;;;;;;10.43;9.32;;;;;;;;;;4929228;28;20040;-79
2023/05/08 11:44:16;;;;;;;10.00;8.80;;;;;;;;;;4940415;28;20110;-79
2023/05/08 11:46:54;;;;;;;9.77;8.88;;;;;;;;;;4920260;28;20051;-80
2023/05/08 11:49:24;;;;;;;10.25;8.63;;;;;;;;;;4959546;28;20038;-80
2023/05/08 11:51:56;;;;;;;10.45;9.43;;;;;;;;;;4927770;28;20050;-80
2023/05/08 11:54:23;;;;;;;11.27;10.18;;;;;;;;;;4945479;28;20031;-79
2023/05/08 11:56:49;;;;;;;9.63;8.73;;;;;;;;;;4916083;28;20133;-79
2023/05/08 11:59:15;;;;;;;9.80;8.80;;;;;;;;;;4944492;28;20073;-79
2023/05/08 12:01:41;;;;;;;8.68;7.88;;;;;;;;;;4941931;28;20511;-79
2023/05/08 12:04:10;;;;;;;10.05;8.93;;;;;;;;;;4955891;28;20046;-80
2023/05/08 12:06:37;;;;;;;9.98;8.98;;;;;;;;;;4959841;28;20053;-79
2023/05/08 12:09:08;;;;;;;11.15;9.90;;;;;;;;;;4952595;28;20113;-79
2023/05/08 12:11:34;;;;;;;10.23;9.30;;;;;;;;;;4894984;28;20046;-80
2023/05/08 12:13:59;;;;;;;15.30;9.63;;;;;;;;;;4947444;28;20039;-79
2023/05/08 12:16:25;;;;;;;8.80;7.55;;;;;;;;;;4966283;28;20187;-78
2023/05/08 12:18:51;;;;;;;9.65;8.27;;;;;;;;;;4942304;28;20034;-79
2023/05/08 12:21:18;;;;;;;10.52;8.77;;;;;;;;;;4933825;28;20561;-79
2023/05/08 12:23:44;;;;;;;9.98;8.98;;;;;;;;;;4941603;28;20050;-79
2023/05/08 12:26:11;;;;;;;10.07;9.15;;;;;;;;;;4959501;28;20093;-79
2023/05/08 12:28:37;;;;;;;8.57;7.70;;;;;;;;;;4948681;28;20035;-80
2023/05/08 12:31:02;;;;;;;8.43;7.63;;;;;;;;;;4950633;28;20130;-79
2023/05/08 12:33:29;;;;;;;9.50;8.27;;;;;;;;;;4955840;28;20046;-79
2023/05/08 12:35:55;;;;;;;10.15;9.15;;;;;;;;;;4938411;28;20113;-79
2023/05/08 12:38:25;;;;;;;10.02;9.13;;;;;;;;;;4940428;28;20035;-79
2023/05/08 12:40:57;;;;;;;9.10;8.20;;;;;;;;;;4952255;28;20033;-79
2023/05/08 12:43:33;;;;;;;9.20;8.30;;;;;;;;;;4939043;28;20043;-80
2023/05/08 12:45:59;;;;;;;8.30;7.50;;;;;;;;;;4932028;28;20065;-80
2023/05/08 12:48:25;;;;;;;6.30;5.78;;;;;;;;;;4949901;28;20047;-79
2023/05/08 12:50:51;;;;;;;6.60;6.00;;;;;;;;;;4923357;28;20082;-80
2023/05/08 12:53:18;;;;;;;7.30;6.60;;;;;;;;;;4927830;28;20039;-80
2023/05/08 12:55:55;;;;;;;6.25;5.65;;;;;;;;;;4936084;28;20073;-80
2023/05/08 12:58:28;;;;;;;5.53;5.03;;;;;;;;;;4955700;28;20400;-79
2023/05/08 13:01:12;;;;;;;7.13;6.53;;;;;;;;;;4930298;28;20038;-80
2023/05/08 13:03:38;;;;;;;7.22;6.43;;;;;;;;;;4910803;28;20115;-80
2023/05/08 13:06:05;;;;;;;7.40;6.70;;;;;;;;;;4949144;28;20034;-79
2023/05/08 13:08:35;;;;;;;5.78;5.28;;;;;;;;;;4955313;28;20042;-79
2023/05/08 13:11:03;;;;;;;7.60;6.90;;;;;;;;;;4948140;28;20690;-80
2023/05/08 13:13:33;;;;;;;7.40;6.70;;;;;;;;;;4952596;28;20053;-80
2023/05/08 13:16:02;;;;;;;7.45;6.85;;;;;;;;;;4935613;28;20043;-79
2023/05/08 13:18:28;;;;;;;6.32;5.72;;;;;;;;;;4928257;28;20050;-80
2023/05/08 13:20:56;;;;;;;6.60;5.80;;;;;;;;;;4936079;28;20062;-80
2023/05/08 13:23:23;;;;;;;6.88;6.28;;;;;;;;;;4936855;28;20118;-80
2023/05/08 13:25:48;;;;;;;7.40;6.68;;;;;;;;;;4957080;28;20042;-80
2023/05/08 13:28:14;;;;;;;7.78;6.85;;;;;;;;;;4953991;28;20511;-80
2023/05/08 13:30:39;;;;;;;7.90;7.10;;;;;;;;;;4928146;28;20896;-80
2023/05/08 13:33:05;;;;;;;7.35;6.47;;;;;;;;;;4952787;28;20039;-80
2023/05/08 13:35:32;;;;;;;8.90;8.00;;;;;;;;;;4945249;28;20089;-80
2023/05/08 13:37:58;;;;;;;8.60;7.80;;;;;;;;;;4946351;28;20047;-80
2023/05/08 13:40:24;;;;;;;8.25;7.45;;;;;;;;;;4944774;28;20603;-80
2023/05/08 13:42:50;;;;;;;8.02;7.22;;;;;;;;;;4931375;28;20038;-80
2023/05/08 13:45:17;;;;;;;7.78;7.07;;;;;;;;;;4949647;28;20173;-80
2023/05/08 13:47:43;;;;;;;8.45;7.65;;;;;;;;;;4949445;28;20046;-80
2023/05/08 13:50:10;;;;;;;8.00;7.30;;;;;;;;;;4954373;28;20515;-80
2023/05/08 13:52:36;;;;;;;7.22;6.57;;;;;;;;;;4924358;28;20605;-80
2023/05/08 13:55:04;;;;;;;7.10;6.40;;;;;;;;;;4936493;28;20031;-80
2023/05/08 13:57:29;;;;;;;7.07;6.45;;;;;;;;;;4930971;28;20072;-80
2023/05/08 13:59:54;;;;;;;7.18;6.57;;;;;;;;;;4954858;28;20102;-80
2023/05/08 14:02:20;;;;;;;6.80;6.20;;;;;;;;;;4934918;28;20046;-80
2023/05/08 14:04:45;;;;;;;7.82;7.13;;;;;;;;;;4930287;28;20030;-80
2023/05/08 14:07:11;;;;;;;7.45;6.78;;;;;;;;;;4945593;28;20133;-79
2023/05/08 14:09:36;;;;;;;7.20;6.50;;;;;;;;;;4934895;28;20047;-80
2023/05/08 14:12:01;;;;;;;7.25;6.65;;;;;;;;;;4909684;28;20595;-79
2023/05/08 14:14:27;;;;;;;7.15;6.22;;;;;;;;;;4947106;28;20055;-80
2023/05/08 14:16:52;;;;;;;7.72;7.03;;;;;;;;;;4945479;28;20041;-80
2023/05/08 14:19:18;;;;;;;7.18;6.47;;;;;;;;;;4943322;28;20046;-80
2023/05/08 14:21:44;;;;;;;8.77;6.40;;;;;;;;;;4913917;28;20137;-80
2023/05/08 14:24:10;;;;;;;7.85;6.00;;;;;;;;;;4938434;28;20142;-80
2023/05/08 14:26:36;;;;;;;8.10;6.38;;;;;;;;;;4920298;28;20137;-80
2023/05/08 14:29:02;;;;;;;7.88;6.40;;;;;;;;;;4945178;28;20042;-79
2023/05/08 14:31:28;;;;;;;7.85;6.55;;;;;;;;;;4934591;28;20097;-80
2023/05/08 14:33:53;;;;;;;7.68;6.95;;;;;;;;;;4952796;28;20478;-80
2023/05/08 14:36:18;;;;;;;7.70;6.35;;;;;;;;;;4949657;28;20066;-79
2023/05/08 14:38:44;;;;;;;7.38;6.30;;;;;;;;;;4930796;28;20053;-80
2023/05/08 14:41:09;;;;;;;6.68;5.97;;;;;;;;;;4912302;28;20040;-80
2023/05/08 14:43:35;;;;;;;8.57;5.70;;;;;;;;;;4948278;28;20042;-79
2023/05/08 14:46:00;;;;;;;7.18;5.28;;;;;;;;;;4951013;28;20053;-80
